sensor_id;sensor_type;location;lat;lon;timestamp;P1;durP1;ratioP1;P2;durP2;ratioP2
59786;SDS011;45672;51.612;5.536;2023-04-06T00:00:38;17.63;;;11.73;;
59786;SDS011;45672;51.612;5.536;2023-04-06T00:03:04;21.20;;;12.15;;
59786;SDS011;45672;51.612;5.536;2023-04-06T00:05:29;18.88;;;12.20;;
59786;SDS011;45672;51.612;5.536;2023-04-06T00:07:56;16.83;;;11.77;;
59786;SDS011;45672;51.612;5.536;2023-04-06T00:10:22;18.35;;;11.95;;
59786;SDS011;45672;51.612;5.536;2023-04-06T00:12:47;17.92;;;12.43;;
59786;SDS011;45672;51.612;5.536;2023-04-06T00:15:13;18.08;;;12.20;;
59786;SDS011;45672;51.612;5.536;2023-04-06T00:17:38;18.02;;;12.55;;
59786;SDS011;45672;51.612;5.536;2023-04-06T00:20:03;18.58;;;12.15;;
59786;SDS011;45672;51.612;5.536;2023-04-06T00:22:29;24.88;;;12.75;;
59786;SDS011;45672;51.612;5.536;2023-04-06T00:24:55;17.30;;;11.52;;
59786;SDS011;45672;51.612;5.536;2023-04-06T00:27:20;16.88;;;11.88;;
59786;SDS011;45672;51.612;5.536;2023-04-06T00:29:45;18.20;;;12.35;;
59786;SDS011;45672;51.612;5.536;2023-04-06T00:32:11;21.27;;;12.85;;
59786;SDS011;45672;51.612;5.536;2023-04-06T00:34:36;17.25;;;12.38;;
59786;SDS011;45672;51.612;5.536;2023-04-06T00:37:01;18.75;;;12.25;;
59786;SDS011;45672;51.612;5.536;2023-04-06T00:39:26;20.05;;;12.20;;
59786;SDS011;45672;51.612;5.536;2023-04-06T00:41:52;18.17;;;12.43;;
59786;SDS011;45672;51.612;5.536;2023-04-06T00:44:18;20.75;;;12.95;;
59786;SDS011;45672;51.612;5.536;2023-04-06T00:46:44;21.08;;;12.88;;
59786;SDS011;45672;51.612;5.536;2023-04-06T00:49:10;17.25;;;12.20;;
59786;SDS011;45672;51.612;5.536;2023-04-06T00:51:35;18.10;;;12.35;;
59786;SDS011;45672;51.612;5.536;2023-04-06T00:54:01;17.05;;;11.70;;
59786;SDS011;45672;51.612;5.536;2023-04-06T00:56:26;17.60;;;13.02;;
59786;SDS011;45672;51.612;5.536;2023-04-06T00:58:51;16.63;;;12.13;;
59786;SDS011;45672;51.612;5.536;2023-04-06T01:01:17;18.23;;;12.45;;
59786;SDS011;45672;51.612;5.536;2023-04-06T01:03:42;20.60;;;12.45;;
59786;SDS011;45672;51.612;5.536;2023-04-06T01:06:09;17.98;;;12.43;;
59786;SDS011;45672;51.612;5.536;2023-04-06T01:08:34;19.75;;;13.18;;
59786;SDS011;45672;51.612;5.536;2023-04-06T01:11:01;18.42;;;12.98;;
59786;SDS011;45672;51.612;5.536;2023-04-06T01:13:26;20.88;;;13.02;;
59786;SDS011;45672;51.612;5.536;2023-04-06T01:15:52;18.27;;;12.13;;
59786;SDS011;45672;51.612;5.536;2023-04-06T01:18:17;19.80;;;12.65;;
59786;SDS011;45672;51.612;5.536;2023-04-06T01:20:43;18.83;;;13.07;;
59786;SDS011;45672;51.612;5.536;2023-04-06T01:23:08;23.45;;;13.45;;
59786;SDS011;45672;51.612;5.536;2023-04-06T01:25:34;17.90;;;12.23;;
59786;SDS011;45672;51.612;5.536;2023-04-06T01:27:59;22.55;;;12.48;;
59786;SDS011;45672;51.612;5.536;2023-04-06T01:30:24;19.65;;;13.07;;
59786;SDS011;45672;51.612;5.536;2023-04-06T01:32:50;20.13;;;13.43;;
59786;SDS011;45672;51.612;5.536;2023-04-06T01:35:15;20.08;;;12.70;;
59786;SDS011;45672;51.612;5.536;2023-04-06T01:37:42;20.73;;;13.65;;
59786;SDS011;45672;51.612;5.536;2023-04-06T01:40:08;20.08;;;12.18;;
59786;SDS011;45672;51.612;5.536;2023-04-06T01:42:33;20.70;;;12.30;;
59786;SDS011;45672;51.612;5.536;2023-04-06T01:44:59;20.08;;;12.60;;
59786;SDS011;45672;51.612;5.536;2023-04-06T01:47:25;22.45;;;13.18;;
59786;SDS011;45672;51.612;5.536;2023-04-06T01:49:51;20.08;;;13.55;;
59786;SDS011;45672;51.612;5.536;2023-04-06T01:52:16;18.80;;;12.93;;
59786;SDS011;45672;51.612;5.536;2023-04-06T01:54:41;20.58;;;13.30;;
59786;SDS011;45672;51.612;5.536;2023-04-06T01:57:06;21.02;;;13.27;;
59786;SDS011;45672;51.612;5.536;2023-04-06T01:59:32;18.88;;;12.65;;
59786;SDS011;45672;51.612;5.536;2023-04-06T02:01:57;22.02;;;12.82;;
59786;SDS011;45672;51.612;5.536;2023-04-06T02:04:22;21.88;;;12.98;;
59786;SDS011;45672;51.612;5.536;2023-04-06T02:06:47;21.02;;;13.00;;
59786;SDS011;45672;51.612;5.536;2023-04-06T02:09:13;19.13;;;13.35;;
59786;SDS011;45672;51.612;5.536;2023-04-06T02:11:39;19.05;;;12.77;;
59786;SDS011;45672;51.612;5.536;2023-04-06T02:14:04;20.98;;;13.38;;
59786;SDS011;45672;51.612;5.536;2023-04-06T02:16:30;21.85;;;12.82;;
59786;SDS011;45672;51.612;5.536;2023-04-06T02:18:55;26.73;;;14.15;;
59786;SDS011;45672;51.612;5.536;2023-04-06T02:21:21;24.00;;;13.73;;
59786;SDS011;45672;51.612;5.536;2023-04-06T02:23:46;21.55;;;13.55;;
59786;SDS011;45672;51.612;5.536;2023-04-06T02:26:12;21.95;;;13.52;;
59786;SDS011;45672;51.612;5.536;2023-04-06T02:28:38;19.73;;;13.43;;
59786;SDS011;45672;51.612;5.536;2023-04-06T02:31:03;26.45;;;13.27;;
59786;SDS011;45672;51.612;5.536;2023-04-06T02:33:28;20.83;;;13.65;;
59786;SDS011;45672;51.612;5.536;2023-04-06T02:35:54;29.20;;;13.57;;
59786;SDS011;45672;51.612;5.536;2023-04-06T02:38:19;26.17;;;14.32;;
59786;SDS011;45672;51.612;5.536;2023-04-06T02:40:44;23.02;;;14.43;;
59786;SDS011;45672;51.612;5.536;2023-04-06T02:43:10;28.83;;;14.77;;
59786;SDS011;45672;51.612;5.536;2023-04-06T02:45:35;25.38;;;14.40;;
59786;SDS011;45672;51.612;5.536;2023-04-06T02:48:00;26.48;;;14.27;;
59786;SDS011;45672;51.612;5.536;2023-04-06T02:50:26;23.75;;;14.93;;
59786;SDS011;45672;51.612;5.536;2023-04-06T02:52:52;21.05;;;13.52;;
59786;SDS011;45672;51.612;5.536;2023-04-06T02:55:17;24.90;;;15.18;;
59786;SDS011;45672;51.612;5.536;2023-04-06T02:57:44;27.05;;;14.90;;
59786;SDS011;45672;51.612;5.536;2023-04-06T03:00:09;23.35;;;15.27;;
59786;SDS011;45672;51.612;5.536;2023-04-06T03:02:35;23.30;;;14.90;;
59786;SDS011;45672;51.612;5.536;2023-04-06T03:05:00;27.23;;;15.32;;
59786;SDS011;45672;51.612;5.536;2023-04-06T03:07:28;25.30;;;14.75;;
59786;SDS011;45672;51.612;5.536;2023-04-06T03:09:53;26.52;;;14.60;;
59786;SDS011;45672;51.612;5.536;2023-04-06T03:12:18;24.70;;;14.52;;
59786;SDS011;45672;51.612;5.536;2023-04-06T03:14:43;25.17;;;15.25;;
59786;SDS011;45672;51.612;5.536;2023-04-06T03:17:09;23.95;;;14.60;;
59786;SDS011;45672;51.612;5.536;2023-04-06T03:19:34;22.00;;;15.20;;
59786;SDS011;45672;51.612;5.536;2023-04-06T03:22:00;24.55;;;15.75;;
59786;SDS011;45672;51.612;5.536;2023-04-06T03:24:25;25.75;;;15.50;;
59786;SDS011;45672;51.612;5.536;2023-04-06T03:26:51;27.80;;;15.35;;
59786;SDS011;45672;51.612;5.536;2023-04-06T03:29:16;22.45;;;15.27;;
59786;SDS011;45672;51.612;5.536;2023-04-06T03:31:41;24.25;;;15.95;;
59786;SDS011;45672;51.612;5.536;2023-04-06T03:34:07;26.98;;;16.77;;
59786;SDS011;45672;51.612;5.536;2023-04-06T03:36:33;26.13;;;16.30;;
59786;SDS011;45672;51.612;5.536;2023-04-06T03:38:59;29.10;;;16.05;;
59786;SDS011;45672;51.612;5.536;2023-04-06T03:41:24;26.58;;;16.02;;
59786;SDS011;45672;51.612;5.536;2023-04-06T03:43:50;30.13;;;16.58;;
59786;SDS011;45672;51.612;5.536;2023-04-06T03:46:15;25.45;;;16.23;;
59786;SDS011;45672;51.612;5.536;2023-04-06T03:48:40;25.85;;;15.73;;
59786;SDS011;45672;51.612;5.536;2023-04-06T03:51:06;24.85;;;16.10;;
59786;SDS011;45672;51.612;5.536;2023-04-06T03:53:31;26.70;;;17.20;;
59786;SDS011;45672;51.612;5.536;2023-04-06T03:55:56;33.95;;;16.13;;
59786;SDS011;45672;51.612;5.536;2023-04-06T03:58:22;26.60;;;16.77;;
59786;SDS011;45672;51.612;5.536;2023-04-06T04:00:47;22.42;;;15.82;;
59786;SDS011;45672;51.612;5.536;2023-04-06T04:03:12;29.25;;;16.52;;
59786;SDS011;45672;51.612;5.536;2023-04-06T04:05:37;28.38;;;16.52;;
59786;SDS011;45672;51.612;5.536;2023-04-06T04:08:03;24.45;;;15.73;;
59786;SDS011;45672;51.612;5.536;2023-04-06T04:10:28;25.38;;;17.13;;
59786;SDS011;45672;51.612;5.536;2023-04-06T04:12:53;24.25;;;15.88;;
59786;SDS011;45672;51.612;5.536;2023-04-06T04:15:19;27.85;;;17.00;;
59786;SDS011;45672;51.612;5.536;2023-04-06T04:17:44;28.38;;;16.92;;
59786;SDS011;45672;51.612;5.536;2023-04-06T04:20:14;26.02;;;17.13;;
59786;SDS011;45672;51.612;5.536;2023-04-06T04:22:40;26.45;;;17.25;;
59786;SDS011;45672;51.612;5.536;2023-04-06T04:25:05;24.77;;;17.33;;
59786;SDS011;45672;51.612;5.536;2023-04-06T04:27:31;139.23;;;53.20;;
59786;SDS011;45672;51.612;5.536;2023-04-06T04:29:56;40.95;;;23.92;;
59786;SDS011;45672;51.612;5.536;2023-04-06T04:32:21;32.13;;;18.67;;
59786;SDS011;45672;51.612;5.536;2023-04-06T04:34:47;31.23;;;18.17;;
59786;SDS011;45672;51.612;5.536;2023-04-06T04:37:12;29.58;;;17.92;;
59786;SDS011;45672;51.612;5.536;2023-04-06T04:39:37;28.42;;;18.65;;
59786;SDS011;45672;51.612;5.536;2023-04-06T04:42:02;27.67;;;17.40;;
59786;SDS011;45672;51.612;5.536;2023-04-06T04:44:28;31.95;;;18.30;;
59786;SDS011;45672;51.612;5.536;2023-04-06T04:46:53;27.58;;;18.33;;
59786;SDS011;45672;51.612;5.536;2023-04-06T04:49:18;30.70;;;18.45;;
59786;SDS011;45672;51.612;5.536;2023-04-06T04:51:44;30.55;;;18.30;;
59786;SDS011;45672;51.612;5.536;2023-04-06T04:54:09;35.97;;;17.98;;
59786;SDS011;45672;51.612;5.536;2023-04-06T04:56:34;28.90;;;18.67;;
59786;SDS011;45672;51.612;5.536;2023-04-06T04:59:00;28.48;;;18.60;;
59786;SDS011;45672;51.612;5.536;2023-04-06T05:01:25;32.20;;;18.33;;
59786;SDS011;45672;51.612;5.536;2023-04-06T05:03:50;26.27;;;18.33;;
59786;SDS011;45672;51.612;5.536;2023-04-06T05:06:16;30.05;;;18.45;;
59786;SDS011;45672;51.612;5.536;2023-04-06T05:08:41;28.45;;;17.95;;
59786;SDS011;45672;51.612;5.536;2023-04-06T05:11:07;25.73;;;17.10;;
59786;SDS011;45672;51.612;5.536;2023-04-06T05:13:32;29.55;;;17.60;;
59786;SDS011;45672;51.612;5.536;2023-04-06T05:15:57;30.88;;;17.95;;
59786;SDS011;45672;51.612;5.536;2023-04-06T05:18:23;30.30;;;18.33;;
59786;SDS011;45672;51.612;5.536;2023-04-06T05:20:48;26.52;;;17.00;;
59786;SDS011;45672;51.612;5.536;2023-04-06T05:23:14;29.10;;;18.38;;
59786;SDS011;45672;51.612;5.536;2023-04-06T05:25:40;25.75;;;17.27;;
59786;SDS011;45672;51.612;5.536;2023-04-06T05:28:05;26.08;;;17.67;;
59786;SDS011;45672;51.612;5.536;2023-04-06T05:30:31;26.27;;;17.15;;
59786;SDS011;45672;51.612;5.536;2023-04-06T05:32:56;28.73;;;16.88;;
59786;SDS011;45672;51.612;5.536;2023-04-06T05:35:21;32.17;;;18.05;;
59786;SDS011;45672;51.612;5.536;2023-04-06T05:37:46;26.95;;;17.27;;
59786;SDS011;45672;51.612;5.536;2023-04-06T05:40:12;25.02;;;16.80;;
59786;SDS011;45672;51.612;5.536;2023-04-06T05:42:38;31.05;;;17.48;;
59786;SDS011;45672;51.612;5.536;2023-04-06T05:45:04;31.52;;;17.90;;
59786;SDS011;45672;51.612;5.536;2023-04-06T05:47:30;26.27;;;17.45;;
59786;SDS011;45672;51.612;5.536;2023-04-06T05:49:55;26.05;;;17.15;;
59786;SDS011;45672;51.612;5.536;2023-04-06T05:52:20;27.40;;;18.25;;
59786;SDS011;45672;51.612;5.536;2023-04-06T05:54:46;30.40;;;18.27;;
59786;SDS011;45672;51.612;5.536;2023-04-06T05:57:11;35.53;;;17.58;;
59786;SDS011;45672;51.612;5.536;2023-04-06T05:59:36;27.45;;;18.13;;
59786;SDS011;45672;51.612;5.536;2023-04-06T06:02:02;27.23;;;17.95;;
59786;SDS011;45672;51.612;5.536;2023-04-06T06:04:27;27.42;;;18.50;;
59786;SDS011;45672;51.612;5.536;2023-04-06T06:06:52;31.75;;;17.63;;
59786;SDS011;45672;51.612;5.536;2023-04-06T06:09:17;27.50;;;17.92;;
59786;SDS011;45672;51.612;5.536;2023-04-06T06:11:43;31.42;;;18.95;;
59786;SDS011;45672;51.612;5.536;2023-04-06T06:14:08;26.27;;;17.45;;
59786;SDS011;45672;51.612;5.536;2023-04-06T06:16:33;27.33;;;17.33;;
59786;SDS011;45672;51.612;5.536;2023-04-06T06:18:59;31.70;;;17.23;;
59786;SDS011;45672;51.612;5.536;2023-04-06T06:21:24;30.63;;;18.17;;
59786;SDS011;45672;51.612;5.536;2023-04-06T06:23:50;27.02;;;18.80;;
59786;SDS011;45672;51.612;5.536;2023-04-06T06:26:15;29.58;;;18.63;;
59786;SDS011;45672;51.612;5.536;2023-04-06T06:28:41;25.15;;;17.52;;
59786;SDS011;45672;51.612;5.536;2023-04-06T06:31:07;31.45;;;19.42;;
59786;SDS011;45672;51.612;5.536;2023-04-06T06:33:32;29.13;;;18.75;;
59786;SDS011;45672;51.612;5.536;2023-04-06T06:35:57;31.08;;;19.70;;
59786;SDS011;45672;51.612;5.536;2023-04-06T06:38:23;27.17;;;17.77;;
59786;SDS011;45672;51.612;5.536;2023-04-06T06:40:48;29.92;;;18.27;;
59786;SDS011;45672;51.612;5.536;2023-04-06T06:43:13;27.67;;;17.67;;
59786;SDS011;45672;51.612;5.536;2023-04-06T06:45:39;30.02;;;18.42;;
59786;SDS011;45672;51.612;5.536;2023-04-06T06:48:05;31.10;;;18.15;;
59786;SDS011;45672;51.612;5.536;2023-04-06T06:50:30;30.60;;;19.13;;
59786;SDS011;45672;51.612;5.536;2023-04-06T06:52:55;30.23;;;19.08;;
59786;SDS011;45672;51.612;5.536;2023-04-06T06:55:21;29.23;;;17.80;;
59786;SDS011;45672;51.612;5.536;2023-04-06T06:57:46;34.67;;;18.77;;
59786;SDS011;45672;51.612;5.536;2023-04-06T07:00:12;30.23;;;19.27;;
59786;SDS011;45672;51.612;5.536;2023-04-06T07:02:38;29.27;;;18.40;;
59786;SDS011;45672;51.612;5.536;2023-04-06T07:05:03;27.70;;;18.25;;
59786;SDS011;45672;51.612;5.536;2023-04-06T07:07:31;28.83;;;17.60;;
59786;SDS011;45672;51.612;5.536;2023-04-06T07:09:57;28.92;;;18.23;;
59786;SDS011;45672;51.612;5.536;2023-04-06T07:12:22;28.67;;;18.30;;
59786;SDS011;45672;51.612;5.536;2023-04-06T07:14:47;23.98;;;15.77;;
59786;SDS011;45672;51.612;5.536;2023-04-06T07:17:13;30.42;;;17.65;;
59786;SDS011;45672;51.612;5.536;2023-04-06T07:19:38;27.73;;;18.17;;
59786;SDS011;45672;51.612;5.536;2023-04-06T07:22:04;29.48;;;17.52;;
59786;SDS011;45672;51.612;5.536;2023-04-06T07:24:29;32.03;;;18.38;;
59786;SDS011;45672;51.612;5.536;2023-04-06T07:26:54;27.55;;;16.63;;
59786;SDS011;45672;51.612;5.536;2023-04-06T07:29:21;26.48;;;16.55;;
59786;SDS011;45672;51.612;5.536;2023-04-06T07:31:47;25.77;;;17.10;;
59786;SDS011;45672;51.612;5.536;2023-04-06T07:34:14;27.42;;;16.67;;
59786;SDS011;45672;51.612;5.536;2023-04-06T07:36:39;29.67;;;17.25;;
59786;SDS011;45672;51.612;5.536;2023-04-06T07:39:04;27.08;;;17.48;;
59786;SDS011;45672;51.612;5.536;2023-04-06T07:41:30;27.80;;;17.02;;
59786;SDS011;45672;51.612;5.536;2023-04-06T07:43:55;23.10;;;16.23;;
59786;SDS011;45672;51.612;5.536;2023-04-06T07:46:20;28.52;;;16.52;;
59786;SDS011;45672;51.612;5.536;2023-04-06T07:48:45;25.50;;;17.15;;
59786;SDS011;45672;51.612;5.536;2023-04-06T07:51:11;24.02;;;16.38;;
59786;SDS011;45672;51.612;5.536;2023-04-06T07:53:39;29.35;;;17.63;;
59786;SDS011;45672;51.612;5.536;2023-04-06T07:56:04;24.88;;;16.83;;
59786;SDS011;45672;51.612;5.536;2023-04-06T07:58:30;27.42;;;17.40;;
59786;SDS011;45672;51.612;5.536;2023-04-06T08:00:55;25.85;;;17.45;;
59786;SDS011;45672;51.612;5.536;2023-04-06T08:03:22;25.75;;;16.75;;
59786;SDS011;45672;51.612;5.536;2023-04-06T08:05:50;25.77;;;18.00;;
59786;SDS011;45672;51.612;5.536;2023-04-06T08:08:16;25.40;;;17.73;;
59786;SDS011;45672;51.612;5.536;2023-04-06T08:10:41;29.50;;;18.05;;
59786;SDS011;45672;51.612;5.536;2023-04-06T08:13:10;25.73;;;17.75;;
59786;SDS011;45672;51.612;5.536;2023-04-06T08:15:35;31.73;;;17.38;;
59786;SDS011;45672;51.612;5.536;2023-04-06T08:18:00;28.65;;;17.92;;
59786;SDS011;45672;51.612;5.536;2023-04-06T08:20:25;28.95;;;17.27;;
59786;SDS011;45672;51.612;5.536;2023-04-06T08:22:51;28.35;;;18.33;;
59786;SDS011;45672;51.612;5.536;2023-04-06T08:25:16;35.88;;;17.30;;
59786;SDS011;45672;51.612;5.536;2023-04-06T08:27:41;27.20;;;17.25;;
59786;SDS011;45672;51.612;5.536;2023-04-06T08:30:07;30.42;;;17.27;;
59786;SDS011;45672;51.612;5.536;2023-04-06T08:32:32;34.15;;;18.58;;
59786;SDS011;45672;51.612;5.536;2023-04-06T08:34:57;27.67;;;17.40;;
59786;SDS011;45672;51.612;5.536;2023-04-06T08:37:23;30.60;;;18.08;;
59786;SDS011;45672;51.612;5.536;2023-04-06T08:39:48;32.90;;;17.35;;
59786;SDS011;45672;51.612;5.536;2023-04-06T08:42:16;27.85;;;17.75;;
59786;SDS011;45672;51.612;5.536;2023-04-06T08:44:44;30.67;;;16.77;;
59786;SDS011;45672;51.612;5.536;2023-04-06T08:47:10;25.25;;;17.58;;
59786;SDS011;45672;51.612;5.536;2023-04-06T08:49:37;27.65;;;17.20;;
59786;SDS011;45672;51.612;5.536;2023-04-06T08:52:05;27.50;;;16.75;;
59786;SDS011;45672;51.612;5.536;2023-04-06T08:54:32;30.48;;;17.35;;
59786;SDS011;45672;51.612;5.536;2023-04-06T08:56:58;27.58;;;16.25;;
59786;SDS011;45672;51.612;5.536;2023-04-06T08:59:24;28.52;;;17.42;;
59786;SDS011;45672;51.612;5.536;2023-04-06T09:01:50;24.98;;;17.30;;
59786;SDS011;45672;51.612;5.536;2023-04-06T09:04:16;30.27;;;18.20;;
59786;SDS011;45672;51.612;5.536;2023-04-06T09:06:42;28.73;;;16.30;;
59786;SDS011;45672;51.612;5.536;2023-04-06T09:09:08;29.80;;;18.10;;
59786;SDS011;45672;51.612;5.536;2023-04-06T09:11:43;27.98;;;17.25;;
59786;SDS011;45672;51.612;5.536;2023-04-06T09:14:09;28.42;;;16.98;;
59786;SDS011;45672;51.612;5.536;2023-04-06T09:16:44;27.45;;;16.83;;
59786;SDS011;45672;51.612;5.536;2023-04-06T09:19:11;29.85;;;18.17;;
59786;SDS011;45672;51.612;5.536;2023-04-06T09:21:37;26.90;;;17.63;;
59786;SDS011;45672;51.612;5.536;2023-04-06T09:24:06;33.28;;;17.45;;
59786;SDS011;45672;51.612;5.536;2023-04-06T09:26:32;34.25;;;17.38;;
59786;SDS011;45672;51.612;5.536;2023-04-06T09:29:08;45.97;;;25.52;;
59786;SDS011;45672;51.612;5.536;2023-04-06T09:31:34;25.13;;;16.42;;
59786;SDS011;45672;51.612;5.536;2023-04-06T09:33:59;26.52;;;17.00;;
59786;SDS011;45672;51.612;5.536;2023-04-06T09:36:35;35.72;;;22.17;;
59786;SDS011;45672;51.612;5.536;2023-04-06T09:39:06;24.13;;;16.10;;
59786;SDS011;45672;51.612;5.536;2023-04-06T09:41:33;27.55;;;17.85;;
59786;SDS011;45672;51.612;5.536;2023-04-06T09:44:03;33.67;;;17.60;;
59786;SDS011;45672;51.612;5.536;2023-04-06T09:46:39;31.25;;;19.35;;
59786;SDS011;45672;51.612;5.536;2023-04-06T09:49:07;30.92;;;20.15;;
59786;SDS011;45672;51.612;5.536;2023-04-06T09:51:36;24.20;;;16.35;;
59786;SDS011;45672;51.612;5.536;2023-04-06T09:54:03;21.38;;;15.13;;
59786;SDS011;45672;51.612;5.536;2023-04-06T09:59:18;31.05;;;19.10;;
59786;SDS011;45672;51.612;5.536;2023-04-06T10:01:58;26.52;;;17.30;;
59786;SDS011;45672;51.612;5.536;2023-04-06T10:04:39;26.75;;;16.30;;
59786;SDS011;45672;51.612;5.536;2023-04-06T10:07:08;20.10;;;15.07;;
59786;SDS011;45672;51.612;5.536;2023-04-06T10:09:36;26.33;;;17.08;;
59786;SDS011;45672;51.612;5.536;2023-04-06T10:12:03;24.42;;;14.63;;
59786;SDS011;45672;51.612;5.536;2023-04-06T10:14:30;19.58;;;14.43;;
59786;SDS011;45672;51.612;5.536;2023-04-06T10:16:57;32.97;;;17.20;;
59786;SDS011;45672;51.612;5.536;2023-04-06T10:19:24;23.45;;;13.70;;
59786;SDS011;45672;51.612;5.536;2023-04-06T10:21:54;21.90;;;13.73;;
59786;SDS011;45672;51.612;5.536;2023-04-06T10:24:22;23.60;;;14.40;;
59786;SDS011;45672;51.612;5.536;2023-04-06T10:26:57;24.52;;;14.27;;
59786;SDS011;45672;51.612;5.536;2023-04-06T10:29:23;23.20;;;14.85;;
59786;SDS011;45672;51.612;5.536;2023-04-06T10:31:49;26.15;;;15.23;;
59786;SDS011;45672;51.612;5.536;2023-04-06T10:34:14;21.58;;;13.98;;
59786;SDS011;45672;51.612;5.536;2023-04-06T10:36:40;24.77;;;14.45;;
59786;SDS011;45672;51.612;5.536;2023-04-06T10:39:05;23.83;;;13.00;;
59786;SDS011;45672;51.612;5.536;2023-04-06T10:41:35;18.08;;;12.55;;
59786;SDS011;45672;51.612;5.536;2023-04-06T10:44:01;19.33;;;12.25;;
59786;SDS011;45672;51.612;5.536;2023-04-06T10:46:30;16.08;;;10.55;;
59786;SDS011;45672;51.612;5.536;2023-04-06T10:48:57;18.55;;;11.13;;
59786;SDS011;45672;51.612;5.536;2023-04-06T10:51:27;19.35;;;11.13;;
59786;SDS011;45672;51.612;5.536;2023-04-06T10:53:53;13.93;;;10.18;;
59786;SDS011;45672;51.612;5.536;2023-04-06T10:56:21;15.25;;;10.75;;
59786;SDS011;45672;51.612;5.536;2023-04-06T10:58:49;16.40;;;9.52;;
59786;SDS011;45672;51.612;5.536;2023-04-06T11:01:17;13.05;;;10.18;;
59786;SDS011;45672;51.612;5.536;2023-04-06T11:06:10;15.25;;;9.82;;
59786;SDS011;45672;51.612;5.536;2023-04-06T11:08:35;11.63;;;10.20;;
59786;SDS011;45672;51.612;5.536;2023-04-06T11:13:38;13.80;;;8.65;;
59786;SDS011;45672;51.612;5.536;2023-04-06T11:16:20;12.13;;;9.02;;
59786;SDS011;45672;51.612;5.536;2023-04-06T11:18:48;11.90;;;7.25;;
59786;SDS011;45672;51.612;5.536;2023-04-06T11:21:14;14.85;;;9.38;;
59786;SDS011;45672;51.612;5.536;2023-04-06T11:23:40;18.73;;;8.88;;
59786;SDS011;45672;51.612;5.536;2023-04-06T11:26:09;9.15;;;8.07;;
59786;SDS011;45672;51.612;5.536;2023-04-06T11:28:39;12.82;;;8.23;;
59786;SDS011;45672;51.612;5.536;2023-04-06T11:31:07;13.43;;;8.27;;
59786;SDS011;45672;51.612;5.536;2023-04-06T11:33:37;10.65;;;8.32;;
59786;SDS011;45672;51.612;5.536;2023-04-06T11:36:03;13.23;;;7.88;;
59786;SDS011;45672;51.612;5.536;2023-04-06T11:38:30;9.40;;;7.85;;
59786;SDS011;45672;51.612;5.536;2023-04-06T11:40:55;9.95;;;8.07;;
59786;SDS011;45672;51.612;5.536;2023-04-06T11:43:28;10.43;;;7.47;;
59786;SDS011;45672;51.612;5.536;2023-04-06T11:45:59;11.20;;;8.68;;
59786;SDS011;45672;51.612;5.536;2023-04-06T11:48:29;10.77;;;8.27;;
59786;SDS011;45672;51.612;5.536;2023-04-06T11:50:55;11.25;;;7.82;;
59786;SDS011;45672;51.612;5.536;2023-04-06T11:53:29;9.63;;;8.38;;
59786;SDS011;45672;51.612;5.536;2023-04-06T11:55:55;12.20;;;7.95;;
59786;SDS011;45672;51.612;5.536;2023-04-06T11:58:21;10.18;;;7.50;;
59786;SDS011;45672;51.612;5.536;2023-04-06T12:00:47;10.77;;;7.97;;
59786;SDS011;45672;51.612;5.536;2023-04-06T12:03:13;14.77;;;8.88;;
59786;SDS011;45672;51.612;5.536;2023-04-06T12:05:39;13.45;;;8.45;;
59786;SDS011;45672;51.612;5.536;2023-04-06T12:08:04;13.77;;;7.03;;
59786;SDS011;45672;51.612;5.536;2023-04-06T12:10:29;10.45;;;8.10;;
59786;SDS011;45672;51.612;5.536;2023-04-06T12:12:55;13.88;;;9.48;;
59786;SDS011;45672;51.612;5.536;2023-04-06T12:15:20;11.25;;;8.45;;
59786;SDS011;45672;51.612;5.536;2023-04-06T12:17:46;10.93;;;8.27;;
59786;SDS011;45672;51.612;5.536;2023-04-06T12:20:12;20.58;;;7.97;;
59786;SDS011;45672;51.612;5.536;2023-04-06T12:22:38;8.25;;;6.20;;
59786;SDS011;45672;51.612;5.536;2023-04-06T12:25:03;12.88;;;8.75;;
59786;SDS011;45672;51.612;5.536;2023-04-06T12:27:29;12.65;;;9.30;;
59786;SDS011;45672;51.612;5.536;2023-04-06T12:29:54;12.43;;;9.57;;
59786;SDS011;45672;51.612;5.536;2023-04-06T12:32:20;15.57;;;9.73;;
59786;SDS011;45672;51.612;5.536;2023-04-06T12:34:45;10.55;;;7.80;;
59786;SDS011;45672;51.612;5.536;2023-04-06T12:37:11;11.23;;;9.27;;
59786;SDS011;45672;51.612;5.536;2023-04-06T12:39:36;12.88;;;6.47;;
59786;SDS011;45672;51.612;5.536;2023-04-06T12:42:01;10.85;;;8.57;;
59786;SDS011;45672;51.612;5.536;2023-04-06T12:44:27;8.65;;;6.32;;
59786;SDS011;45672;51.612;5.536;2023-04-06T12:46:53;11.95;;;8.23;;
59786;SDS011;45672;51.612;5.536;2023-04-06T12:49:18;12.05;;;9.20;;
59786;SDS011;45672;51.612;5.536;2023-04-06T12:51:44;13.50;;;10.30;;
59786;SDS011;45672;51.612;5.536;2023-04-06T12:54:10;15.55;;;10.65;;
59786;SDS011;45672;51.612;5.536;2023-04-06T12:56:36;17.30;;;11.63;;
59786;SDS011;45672;51.612;5.536;2023-04-06T12:59:02;17.23;;;11.88;;
59786;SDS011;45672;51.612;5.536;2023-04-06T13:01:27;16.40;;;11.57;;
59786;SDS011;45672;51.612;5.536;2023-04-06T13:03:53;19.30;;;12.15;;
59786;SDS011;45672;51.612;5.536;2023-04-06T13:06:18;17.52;;;11.18;;
59786;SDS011;45672;51.612;5.536;2023-04-06T13:08:44;18.25;;;12.63;;
59786;SDS011;45672;51.612;5.536;2023-04-06T13:11:09;17.10;;;11.98;;
59786;SDS011;45672;51.612;5.536;2023-04-06T13:13:35;15.32;;;8.90;;
59786;SDS011;45672;51.612;5.536;2023-04-06T13:16:02;16.63;;;9.80;;
59786;SDS011;45672;51.612;5.536;2023-04-06T13:18:29;20.13;;;12.27;;
59786;SDS011;45672;51.612;5.536;2023-04-06T13:20:56;12.50;;;10.07;;
59786;SDS011;45672;51.612;5.536;2023-04-06T13:23:22;21.75;;;12.23;;
59786;SDS011;45672;51.612;5.536;2023-04-06T13:25:48;19.73;;;12.68;;
59786;SDS011;45672;51.612;5.536;2023-04-06T13:28:13;17.73;;;11.88;;
59786;SDS011;45672;51.612;5.536;2023-04-06T13:30:38;16.73;;;10.55;;
59786;SDS011;45672;51.612;5.536;2023-04-06T13:33:04;12.75;;;9.32;;
59786;SDS011;45672;51.612;5.536;2023-04-06T13:35:32;21.38;;;13.35;;
59786;SDS011;45672;51.612;5.536;2023-04-06T13:37:57;20.73;;;12.88;;
59786;SDS011;45672;51.612;5.536;2023-04-06T13:40:23;14.82;;;11.27;;
59786;SDS011;45672;51.612;5.536;2023-04-06T13:42:48;18.10;;;11.73;;
59786;SDS011;45672;51.612;5.536;2023-04-06T13:45:13;10.00;;;7.47;;
59786;SDS011;45672;51.612;5.536;2023-04-06T13:47:38;15.23;;;10.73;;
59786;SDS011;45672;51.612;5.536;2023-04-06T13:50:04;16.25;;;12.05;;
59786;SDS011;45672;51.612;5.536;2023-04-06T13:52:30;18.25;;;11.32;;
59786;SDS011;45672;51.612;5.536;2023-04-06T13:54:55;19.15;;;11.68;;
59786;SDS011;45672;51.612;5.536;2023-04-06T13:57:21;15.48;;;9.85;;
59786;SDS011;45672;51.612;5.536;2023-04-06T13:59:46;18.63;;;12.35;;
59786;SDS011;45672;51.612;5.536;2023-04-06T14:02:12;17.45;;;12.85;;
59786;SDS011;45672;51.612;5.536;2023-04-06T14:04:37;17.50;;;13.18;;
59786;SDS011;45672;51.612;5.536;2023-04-06T14:07:03;18.85;;;11.55;;
59786;SDS011;45672;51.612;5.536;2023-04-06T14:09:29;29.80;;;16.83;;
59786;SDS011;45672;51.612;5.536;2023-04-06T14:11:55;18.60;;;11.82;;
59786;SDS011;45672;51.612;5.536;2023-04-06T14:14:21;20.02;;;12.55;;
59786;SDS011;45672;51.612;5.536;2023-04-06T14:16:47;17.30;;;10.45;;
59786;SDS011;45672;51.612;5.536;2023-04-06T14:19:16;17.50;;;12.52;;
59786;SDS011;45672;51.612;5.536;2023-04-06T14:21:46;18.80;;;12.70;;
59786;SDS011;45672;51.612;5.536;2023-04-06T14:24:11;24.55;;;17.02;;